Burgtor — V2OR7 — position and weather

sailwx.info

Track history (hours):
 
Tides and Currents Weather Stations Pressure Air Temp Water Temp Dewpoint Dewpoint Depression Visibility Wind Speed Wind Dir Waves Ship Positions

Burgtor

Last reported at 2016-Sep-25 11:25 UTC. Time now 2016-Sep-25 19:09 UTC.
Position N 51°56' E 003°44'.

Length 87 m; draft 5.2 m.

Type: Cargo ship. MMSI: 304665000.

Date/timePositionNaut miles runAvg speedWind from/ knotsBaromVisibWave heightAir tempDewpointWater temp
2016-Sep-25 11:25N 51°56' E 003°44'0 0.0
2016-Sep-24 22:24N 51°56' E 003°44'0 0.0
2016-Sep-24 21:12N 51°56' E 003°44'0 0.0
2016-Sep-24 18:06N 51°56' E 003°44'0 0.0
2016-Sep-24 17:30N 51°56' E 003°44'0 0.0
2016-Sep-24 12:12N 51°56' E 003°44'0 0.0
2016-Sep-24 10:18N 51°56' E 003°44'0 0.0
2016-Sep-24 00:06N 51°56' E 003°44'0 0.0
2016-Sep-22 00:22N 51°56' E 003°44'0 0.0
2016-Sep-21 23:28N 51°56' E 003°44'0 0.0
2016-Sep-21 22:28N 51°56' E 003°44'95 5.6
2016-Sep-21 05:34N 52°52' E 001°39'13 6.4
2016-Sep-21 03:33N 52°58' E 001°21'7 7.1
2016-Sep-21 02:33N 53°01' E 001°09'32 3.5
2016-Sep-20 17:30N 52°46' E 000°23'0 0.0
2016-Sep-20 14:30N 52°46' E 000°23'0 0.0
2016-Sep-20 13:33N 52°46' E 000°23'0 0.0
2016-Sep-20 10:30N 52°46' E 000°23'0 0.0
2016-Sep-20 08:33N 52°46' E 000°23'0 0.0
2016-Sep-20 07:34N 52°46' E 000°23'0 0.0
2016-Sep-20 06:33N 52°46' E 000°23'0 0.0
2016-Sep-20 02:24N 52°46' E 000°23'0 0.0
2016-Sep-19 23:33N 52°46' E 000°23'0 0.0
2016-Sep-19 19:33N 52°46' E 000°23'0 0.0
2016-Sep-19 18:29N 52°46' E 000°23'0 0.0
2016-Sep-19 16:33N 52°46' E 000°23'0 0.0
2016-Sep-19 14:32N 52°46' E 000°23'0 0.0
2016-Sep-19 13:29N 52°46' E 000°23'0 0.0
2016-Sep-19 12:32N 52°46' E 000°23'0 0.0
2016-Sep-19 11:33N 52°46' E 000°23'0 0.0
2016-Sep-19 09:32N 52°46' E 000°23'0 0.0
2016-Sep-19 07:32N 52°46' E 000°23'3 3.2
2016-Sep-19 06:33N 52°48' E 000°21'21 7.1
2016-Sep-19 03:33N 53°08' E 000°34'7 7.1
2016-Sep-19 02:32N 53°14' E 000°40'13 6.5
2016-Sep-19 00:33N 53°07' E 000°58'33 6.7
2016-Sep-18 19:33N 52°49' E 001°45'34 8.5
2016-Sep-18 15:33N 52°15' E 001°51'1110.9
2016-Sep-18 14:33N 52°04' E 001°50'32 7.9
2016-Sep-18 10:33N 51°40' E 001°17'8 7.0
2016-Sep-18 09:26N 51°34' E 001°09'37 5.3
2016-Sep-18 02:33N 51°30' E 000°10'0 0.0
2016-Sep-18 01:33N 51°30' E 000°10'0 0.0
2016-Sep-18 00:30N 51°30' E 000°10'0 0.0
2016-Sep-17 22:27N 51°30' E 000°10'0 0.0
2016-Sep-17 21:33N 51°30' E 000°10'0 0.0
2016-Sep-17 20:33N 51°30' E 000°10'0 0.0
2016-Sep-17 19:15N 51°30' E 000°10'0 0.0
2016-Sep-17 13:33N 51°30' E 000°10'0 0.0
2016-Sep-17 12:33N 51°30' E 000°10'0 0.0
2016-Sep-17 10:32N 51°30' E 000°10'0 0.0
2016-Sep-17 09:32N 51°30' E 000°10'0 0.0
2016-Sep-17 08:32N 51°30' E 000°10'0 0.0
2016-Sep-17 07:32N 51°30' E 000°10'0 0.0
2016-Sep-17 05:32N 51°30' E 000°10'0 0.0
2016-Sep-17 04:32N 51°30' E 000°10'0 0.0
2016-Sep-17 00:32N 51°30' E 000°10'0 0.0
2016-Sep-16 17:32N 51°30' E 000°10'0 0.0
2016-Sep-16 15:32N 51°30' E 000°10'0 0.0
2016-Sep-16 12:29N 51°30' E 000°10'8 2.6
2016-Sep-16 09:34N 51°27' E 000°22'19 9.4
2016-Sep-16 07:33N 51°30' E 000°52'24 5.9
2016-Sep-16 03:33N 51°27' E 001°30'6 6.0
2016-Sep-16 02:33N 51°22' E 001°34'12 6.2
2016-Sep-16 00:34N 51°10' E 001°41'  
Track history (hours):
 
Tides and Currents Weather Stations Pressure Air Temp Water Temp Dewpoint Dewpoint Depression Visibility Wind Speed Wind Dir Waves Ship Positions

Burgtor

Last reported at 2016-Sep-25 11:25 UTC. Time now 2016-Sep-25 19:09 UTC.
Position N 51°56' E 003°44'.

Length 87 m; draft 5.2 m.

Type: Cargo ship. MMSI: 304665000.

Date/timePositionNaut miles runAvg speedWind from/ knotsBaromVisibWave heightAir tempDewpointWater temp
2016-Sep-25 11:25N 51°56' E 003°44'0 0.0
2016-Sep-24 22:24N 51°56' E 003°44'0 0.0
2016-Sep-24 21:12N 51°56' E 003°44'0 0.0
2016-Sep-24 18:06N 51°56' E 003°44'0 0.0
2016-Sep-24 17:30N 51°56' E 003°44'0 0.0
2016-Sep-24 12:12N 51°56' E 003°44'0 0.0
2016-Sep-24 10:18N 51°56' E 003°44'0 0.0
2016-Sep-24 00:06N 51°56' E 003°44'0 0.0
2016-Sep-22 00:22N 51°56' E 003°44'0 0.0
2016-Sep-21 23:28N 51°56' E 003°44'0 0.0
2016-Sep-21 22:28N 51°56' E 003°44'95 5.6
2016-Sep-21 05:34N 52°52' E 001°39'13 6.4
2016-Sep-21 03:33N 52°58' E 001°21'7 7.1
2016-Sep-21 02:33N 53°01' E 001°09'32 3.5
2016-Sep-20 17:30N 52°46' E 000°23'0 0.0
2016-Sep-20 14:30N 52°46' E 000°23'0 0.0
2016-Sep-20 13:33N 52°46' E 000°23'0 0.0
2016-Sep-20 10:30N 52°46' E 000°23'0 0.0
2016-Sep-20 08:33N 52°46' E 000°23'0 0.0
2016-Sep-20 07:34N 52°46' E 000°23'0 0.0
2016-Sep-20 06:33N 52°46' E 000°23'0 0.0
2016-Sep-20 02:24N 52°46' E 000°23'0 0.0
2016-Sep-19 23:33N 52°46' E 000°23'0 0.0
2016-Sep-19 19:33N 52°46' E 000°23'0 0.0
2016-Sep-19 18:29N 52°46' E 000°23'0 0.0
2016-Sep-19 16:33N 52°46' E 000°23'0 0.0
2016-Sep-19 14:32N 52°46' E 000°23'0 0.0
2016-Sep-19 13:29N 52°46' E 000°23'0 0.0
2016-Sep-19 12:32N 52°46' E 000°23'0 0.0
2016-Sep-19 11:33N 52°46' E 000°23'0 0.0
2016-Sep-19 09:32N 52°46' E 000°23'0 0.0
2016-Sep-19 07:32N 52°46' E 000°23'3 3.2
2016-Sep-19 06:33N 52°48' E 000°21'21 7.1
2016-Sep-19 03:33N 53°08' E 000°34'7 7.1
2016-Sep-19 02:32N 53°14' E 000°40'13 6.5
2016-Sep-19 00:33N 53°07' E 000°58'33 6.7
2016-Sep-18 19:33N 52°49' E 001°45'34 8.5
2016-Sep-18 15:33N 52°15' E 001°51'1110.9
2016-Sep-18 14:33N 52°04' E 001°50'32 7.9
2016-Sep-18 10:33N 51°40' E 001°17'8 7.0
2016-Sep-18 09:26N 51°34' E 001°09'37 5.3
2016-Sep-18 02:33N 51°30' E 000°10'0 0.0
2016-Sep-18 01:33N 51°30' E 000°10'0 0.0
2016-Sep-18 00:30N 51°30' E 000°10'0 0.0
2016-Sep-17 22:27N 51°30' E 000°10'0 0.0
2016-Sep-17 21:33N 51°30' E 000°10'0 0.0
2016-Sep-17 20:33N 51°30' E 000°10'0 0.0
2016-Sep-17 19:15N 51°30' E 000°10'0 0.0
2016-Sep-17 13:33N 51°30' E 000°10'0 0.0
2016-Sep-17 12:33N 51°30' E 000°10'0 0.0
2016-Sep-17 10:32N 51°30' E 000°10'0 0.0
2016-Sep-17 09:32N 51°30' E 000°10'0 0.0
2016-Sep-17 08:32N 51°30' E 000°10'0 0.0
2016-Sep-17 07:32N 51°30' E 000°10'0 0.0
2016-Sep-17 05:32N 51°30' E 000°10'0 0.0
2016-Sep-17 04:32N 51°30' E 000°10'0 0.0
2016-Sep-17 00:32N 51°30' E 000°10'0 0.0
2016-Sep-16 17:32N 51°30' E 000°10'0 0.0
2016-Sep-16 15:32N 51°30' E 000°10'0 0.0
2016-Sep-16 12:29N 51°30' E 000°10'8 2.6
2016-Sep-16 09:34N 51°27' E 000°22'19 9.4
2016-Sep-16 07:33N 51°30' E 000°52'24 5.9
2016-Sep-16 03:33N 51°27' E 001°30'6 6.0
2016-Sep-16 02:33N 51°22' E 001°34'12 6.2
2016-Sep-16 00:34N 51°10' E 001°41'  

Dump ship's entire track history